Time;durP1;ratioP1;P1;durP2;ratioP2;P2;SDS_P1;SDS_P2;PMS_P1;PMS_P2;Temp;Humidity;BMP_temperature;BMP_pressure;BME280_temperature;BME280_humidity;BME280_pressure;Samples;Min_cycle;Max_cycle;Signal;HPM_P1;HPM_P2
2022/11/27 00:01:21;;;;;;;1.77;1.70;;;;;;;5.67;73.48;96203.09;5112629;28;20435;-55
2022/11/27 00:03:49;;;;;;;2.10;1.10;;;;;;;6.02;73.37;96203.41;5112456;28;20436;-55
2022/11/27 00:06:19;;;;;;;3.83;0.80;;;;;;;6.00;72.78;96200.97;5112590;28;20427;-55
2022/11/27 00:08:48;;;;;;;1.40;1.33;;;;;;;5.60;74.32;96199.72;5112230;27;20511;-55
2022/11/27 00:11:19;;;;;;;2.13;2.03;;;;;;;6.04;73.57;96198.72;5113106;28;20434;-55
2022/11/27 00:13:47;;;;;;;1.23;1.13;;;;;;;6.19;72.44;96199.16;5112954;28;20482;-55
2022/11/27 00:16:16;;;;;;;0.90;0.90;;;;;;;6.35;72.17;96198.53;5112069;28;20424;-55
2022/11/27 00:18:47;;;;;;;1.50;0.50;;;;;;;6.40;71.84;96198.69;5112659;28;20427;-55
2022/11/27 00:21:17;;;;;;;0.70;0.50;;;;;;;5.74;72.44;96165.19;5112670;28;20519;-55
2022/11/27 00:23:46;;;;;;;0.40;0.33;;;;;;;6.00;72.54;96197.53;5112952;28;20448;-55
2022/11/27 00:26:15;;;;;;;1.33;1.13;;;;;;;5.72;72.08;96116.44;5112537;28;20420;-55
2022/11/27 00:28:43;;;;;;;0.43;0.30;;;;;;;6.22;72.11;96193.47;5112088;28;20470;-55
2022/11/27 00:31:15;;;;;;;0.67;0.63;;;;;;;6.34;72.10;96195.13;5112509;28;20776;-55
2022/11/27 00:33:44;;;;;;;0.50;0.50;;;;;;;6.27;71.34;96204.13;5111791;28;20428;-55
2022/11/27 00:36:15;;;;;;;0.70;0.70;;;;;;;6.21;72.08;96205.00;5112218;28;20420;-55
2022/11/27 00:38:44;;;;;;;0.40;0.30;;;;;;;5.73;74.07;96192.53;5112391;28;20438;-55
2022/11/27 00:41:15;;;;;;;1.57;1.47;;;;;;;5.88;73.02;96189.56;5112426;28;20518;-55
2022/11/27 00:43:44;;;;;;;6.33;1.80;;;;;;;5.79;73.71;96202.16;5112929;28;20765;-55
2022/11/27 00:46:12;;;;;;;0.40;0.40;;;;;;;5.86;73.50;96196.88;5112743;28;20779;-55
2022/11/27 00:48:41;;;;;;;1.23;0.60;;;;;;;5.81;73.71;96201.16;5112779;28;20897;-55
2022/11/27 00:51:12;;;;;;;0.73;0.73;;;;;;;5.84;73.88;96193.63;5112323;28;20507;-55
2022/11/27 00:53:43;;;;;;;1.63;0.67;;;;;;;5.70;73.37;96207.91;5112268;28;20904;-55
2022/11/27 00:56:16;;;;;;;0.90;0.90;;;;;;;5.27;73.52;96128.22;5112384;28;20420;-55
2022/11/27 00:58:45;;;;;;;1.10;1.10;;;;;;;5.91;72.78;96194.41;5112250;28;20427;-55
2022/11/27 01:01:16;;;;;;;0.67;0.67;;;;;;;5.63;73.69;96191.41;5112592;28;20442;-55
2022/11/27 01:03:46;;;;;;;3.73;0.70;;;;;;;5.77;73.09;96187.63;5112112;28;20435;-55
2022/11/27 01:06:15;;;;;;;0.50;0.40;;;;;;;5.20;73.12;96109.91;5112467;28;20788;-55
2022/11/27 01:08:45;;;;;;;2.30;0.33;;;;;;;5.83;72.83;96184.13;5111867;28;20486;-55
2022/11/27 01:11:15;;;;;;;0.30;0.23;;;;;;;5.63;73.95;96196.66;5111643;28;20444;-55
2022/11/27 01:13:44;;;;;;;0.50;0.50;;;;;;;5.62;74.02;96181.91;5112282;28;20436;-55
2022/11/27 01:16:14;;;;;;;0.40;0.30;;;;;;;5.68;73.42;96179.22;5112398;28;20420;-54
2022/11/27 01:18:45;;;;;;;0.43;0.40;;;;;;;5.69;74.11;96177.41;5112303;28;20419;-54
2022/11/27 01:21:15;;;;;;;0.40;0.30;;;;;;;5.65;73.55;96173.59;5112320;28;20428;-54
2022/11/27 01:23:46;;;;;;;0.40;0.40;;;;;;;5.62;72.80;96166.13;5111275;28;20420;-55
2022/11/27 01:26:16;;;;;;;0.90;0.90;;;;;;;5.64;72.98;96172.78;5111878;28;20434;-54
2022/11/27 01:28:45;;;;;;;0.40;0.27;;;;;;;5.51;73.96;96161.59;5115633;28;20586;-54
2022/11/27 01:31:16;;;;;;;1.43;1.03;;;;;;;5.54;74.36;96171.69;5116177;28;20416;-54
2022/11/27 01:33:45;;;;;;;7.40;0.60;;;;;;;5.64;73.46;96175.41;5115985;28;20428;-54
2022/11/27 01:36:15;;;;;;;0.50;0.47;;;;;;;5.60;73.62;96170.78;5116083;28;20416;-54
2022/11/27 01:38:45;;;;;;;2.03;0.90;;;;;;;5.23;75.57;96180.44;5116187;27;20773;-54
2022/11/27 01:41:15;;;;;;;1.07;1.07;;;;;;;5.01;74.74;96100.34;5115657;28;20873;-54
2022/11/27 01:43:46;;;;;;;0.30;0.20;;;;;;;5.32;74.83;96173.88;5115765;28;20412;-54
2022/11/27 01:46:31;;;;;;;1.30;1.30;;;;;;;5.03;76.89;96183.19;5115677;28;20459;-54
2022/11/27 01:49:19;;;;;;;0.50;0.50;;;;;;;5.15;76.94;96178.06;5115533;28;21056;-54
2022/11/27 01:51:51;;;;;;;1.20;0.50;;;;;;;5.47;76.53;96176.19;5115206;28;20435;-54
2022/11/27 01:54:24;;;;;;;0.40;0.40;;;;;;;5.59;75.71;96172.63;5115341;28;20426;-54
2022/11/27 01:56:59;;;;;;;2.03;1.03;;;;;;;5.26;75.64;96176.56;5114886;27;20464;-54
2022/11/27 01:59:27;;;;;;;0.40;0.40;;;;;;;5.08;77.68;96174.69;5115169;28;20519;-54
2022/11/27 02:01:55;;;;;;;0.97;0.97;;;;;;;5.27;76.79;96175.53;5114523;28;20514;-54
2022/11/27 02:04:24;;;;;;;0.40;0.30;;;;;;;5.12;76.78;96168.78;5115177;28;20420;-55
2022/11/27 02:06:53;;;;;;;0.50;0.40;;;;;;;4.66;78.13;96130.72;5114970;28;20430;-55
2022/11/27 02:09:23;;;;;;;1.70;1.60;;;;;;;4.84;79.32;96173.63;5114698;28;20562;-54
2022/11/27 02:11:57;;;;;;;0.50;0.47;;;;;;;5.00;78.78;96183.66;5114903;28;20438;-54
2022/11/27 02:14:33;;;;;;;2.33;1.40;;;;;;;4.93;79.78;96179.47;5115085;28;20459;-54
2022/11/27 02:17:06;;;;;;;1.00;1.00;;;;;;;4.41;80.48;96115.75;5114572;28;20427;-54
2022/11/27 02:19:55;;;;;;;0.77;0.60;;;;;;;4.47;82.75;96130.66;5115081;28;20424;-54
2022/11/27 02:22:39;;;;;;;1.53;0.40;;;;;;;4.74;86.45;96177.75;5114699;28;20877;-54
2022/11/27 02:25:19;;;;;;;0.60;0.43;;;;;;;4.97;84.75;96191.94;5114918;28;20503;-54
2022/11/27 02:28:13;;;;;;;0.40;0.20;;;;;;;5.20;82.98;96195.81;5114523;28;20604;-54
2022/11/27 02:30:51;;;;;;;0.40;0.40;;;;;;;5.13;83.60;96190.63;5114727;28;20431;-54
2022/11/27 02:33:21;;;;;;;0.40;0.40;;;;;;;5.10;82.20;96189.22;5114726;28;20428;-54
2022/11/27 02:35:55;;;;;;;1.53;1.37;;;;;;;5.13;82.52;96190.63;5114441;28;20424;-54
2022/11/27 02:38:30;;;;;;;0.80;0.80;;;;;;;5.04;82.11;96191.88;5113895;28;20448;-54
2022/11/27 02:41:05;;;;;;;0.50;0.40;;;;;;;5.02;81.64;96189.50;5114347;28;20471;-54
2022/11/27 02:43:37;;;;;;;0.63;0.63;;;;;;;4.70;82.24;96198.38;5114490;28;20419;-54
2022/11/27 02:46:10;;;;;;;0.90;0.40;;;;;;;4.57;84.57;96179.25;5114260;28;20519;-54
2022/11/27 02:48:43;;;;;;;0.63;0.63;;;;;;;4.88;82.86;96195.81;5114038;28;20524;-54
2022/11/27 02:51:13;;;;;;;0.50;0.30;;;;;;;4.93;81.79;96198.63;5114179;28;20427;-55
2022/11/27 02:53:48;;;;;;;0.73;0.73;;;;;;;4.96;80.54;96190.31;5114129;28;20430;-55
2022/11/27 02:56:22;;;;;;;0.63;0.63;;;;;;;5.04;81.25;96190.06;5114314;28;20446;-55
2022/11/27 02:58:52;;;;;;;3.07;0.90;;;;;;;5.08;80.50;96190.47;5114234;27;20449;-55
2022/11/27 03:01:23;;;;;;;0.70;0.70;;;;;;;5.08;80.43;96177.31;5113727;28;20439;-55
2022/11/27 03:03:55;;;;;;;1.97;1.23;;;;;;;5.15;79.26;96199.09;5113788;28;20459;-55
2022/11/27 03:06:28;;;;;;;1.13;1.13;;;;;;;5.16;80.02;96195.47;5113715;28;20511;-54
2022/11/27 03:08:59;;;;;;;1.40;1.40;;;;;;;5.25;79.68;96185.47;5112852;28;20479;-55
2022/11/27 03:11:30;;;;;;;1.97;1.37;;;;;;;5.20;79.92;96186.13;5114006;28;20495;-55
2022/11/27 03:14:02;;;;;;;1.27;1.27;;;;;;;5.08;81.20;96193.88;5113660;28;20781;-55
2022/11/27 03:16:38;;;;;;;1.07;0.90;;;;;;;4.88;82.69;96195.03;5113845;28;20416;-55
2022/11/27 03:19:15;;;;;;;0.57;0.57;;;;;;;5.05;81.53;96199.56;5113453;28;20423;-55
2022/11/27 03:21:48;;;;;;;5.40;0.43;;;;;;;4.80;80.29;96142.78;5113314;28;20455;-55
2022/11/27 03:24:16;;;;;;;1.10;0.57;;;;;;;5.12;80.36;96195.06;5113676;28;20436;-55
2022/11/27 03:26:45;;;;;;;0.50;0.50;;;;;;;5.05;80.64;96204.00;5113502;28;20451;-55
2022/11/27 03:29:17;;;;;;;0.50;0.50;;;;;;;4.82;80.98;96191.44;5112863;28;20492;-55
2022/11/27 03:31:48;;;;;;;1.00;0.63;;;;;;;4.88;83.36;96192.41;5113407;28;20447;-55
2022/11/27 03:34:16;;;;;;;2.20;2.10;;;;;;;5.07;82.00;96188.84;5112282;28;20892;-55
2022/11/27 03:36:45;;;;;;;0.40;0.30;;;;;;;5.11;79.19;96184.75;5113067;28;20420;-55
2022/11/27 03:39:14;;;;;;;1.13;1.13;;;;;;;4.85;79.15;96192.84;5113387;28;20874;-55
2022/11/27 03:41:50;;;;;;;0.40;0.40;;;;;;;4.61;81.94;96196.19;5112719;28;20424;-55
2022/11/27 03:44:26;;;;;;;0.40;0.30;;;;;;;4.97;80.67;96191.94;5112593;28;20428;-55
2022/11/27 03:47:06;;;;;;;1.97;0.80;;;;;;;4.74;80.22;96191.69;5113332;28;20446;-55
2022/11/27 03:49:49;;;;;;;0.93;0.93;;;;;;;4.00;79.69;96114.56;5112799;28;20468;-55
2022/11/27 03:52:27;;;;;;;2.07;1.97;;;;;;;4.01;87.23;96206.16;5112788;28;20526;-55
2022/11/27 03:55:05;;;;;;;1.87;1.77;;;;;;;4.50;84.94;96200.31;5112835;28;20420;-55
2022/11/27 03:57:39;;;;;;;0.80;0.80;;;;;;;4.44;82.28;96193.25;5112749;28;20809;-55
2022/11/27 04:00:10;;;;;;;2.53;0.50;;;;;;;4.74;80.00;96198.75;5112688;28;20434;-55
2022/11/27 04:02:42;;;;;;;0.47;0.40;;;;;;;4.41;77.92;96197.13;5113043;28;20745;-55
2022/11/27 04:05:13;;;;;;;1.33;1.33;;;;;;;4.89;76.16;96200.06;5112944;28;20443;-55
2022/11/27 04:07:41;;;;;;;0.50;0.50;;;;;;;4.56;79.65;96194.22;5112521;28;20784;-55
2022/11/27 04:10:11;;;;;;;0.40;0.37;;;;;;;4.71;78.42;96196.53;5112043;28;21044;-55
2022/11/27 04:12:41;;;;;;;1.67;1.57;;;;;;;4.85;78.16;96196.28;5112694;28;20428;-55
2022/11/27 04:15:11;;;;;;;0.40;0.30;;;;;;;4.83;77.57;96203.53;5112869;28;20830;-55
2022/11/27 04:17:41;;;;;;;1.43;1.33;;;;;;;4.96;77.34;96203.47;5112615;28;20428;-55
2022/11/27 04:20:12;;;;;;;0.90;0.53;;;;;;;4.92;76.97;96206.72;5111510;28;20864;-55
2022/11/27 04:22:40;;;;;;;0.70;0.63;;;;;;;4.89;76.43;96205.34;5112539;28;20438;-55
2022/11/27 04:25:10;;;;;;;1.60;1.50;;;;;;;4.80;75.69;96174.28;5112322;28;20562;-55
2022/11/27 04:27:38;;;;;;;0.40;0.40;;;;;;;4.91;75.53;96205.91;5112389;28;20539;-55
2022/11/27 04:30:08;;;;;;;0.97;0.93;;;;;;;4.82;75.44;96209.00;5112284;28;20467;-54
2022/11/27 04:32:37;;;;;;;0.40;0.33;;;;;;;4.84;75.01;96213.03;5112366;28;20519;-55
2022/11/27 04:35:08;;;;;;;0.80;0.80;;;;;;;4.75;76.35;96203.00;5111563;28;20428;-54
2022/11/27 04:37:37;;;;;;;0.40;0.40;;;;;;;4.79;75.77;96212.88;5111968;28;20471;-54
2022/11/27 04:40:06;;;;;;;1.10;1.03;;;;;;;4.82;75.21;96206.38;5111595;28;20446;-54
2022/11/27 04:42:35;;;;;;;0.43;0.43;;;;;;;4.75;76.15;96226.63;5111972;28;21099;-54
2022/11/27 04:45:03;;;;;;;0.70;0.60;;;;;;;4.37;77.31;96227.44;5111590;28;20431;-54
2022/11/27 04:47:31;;;;;;;1.43;1.33;;;;;;;4.02;79.72;96230.56;5112056;28;20792;-54
2022/11/27 04:50:00;;;;;;;5.13;1.63;;;;;;;4.34;79.52;96227.84;5112092;28;20478;-55
2022/11/27 04:52:29;;;;;;;0.70;0.70;;;;;;;4.43;79.70;96228.38;5111269;28;20435;-54
2022/11/27 04:54:58;;;;;;;0.70;0.70;;;;;;;4.42;78.70;96226.78;5111246;28;20498;-54
2022/11/27 04:57:28;;;;;;;1.97;1.87;;;;;;;4.56;77.44;96225.72;5110854;28;20468;-54
2022/11/27 04:59:56;;;;;;;0.87;0.87;;;;;;;4.38;78.77;96225.59;5110817;28;20821;-54
2022/11/27 05:02:24;;;;;;;0.57;0.57;;;;;;;4.31;79.20;96220.38;5113070;28;20511;-55
2022/11/27 05:04:53;;;;;;;2.13;2.03;;;;;;;4.25;80.03;96228.28;5115190;28;20531;-54
2022/11/27 05:07:21;;;;;;;0.40;0.30;;;;;;;4.39;79.33;96227.22;5115356;28;20420;-54
2022/11/27 05:09:51;;;;;;;0.67;0.67;;;;;;;4.46;79.15;96230.59;5115724;28;20460;-54
2022/11/27 05:12:19;;;;;;;0.50;0.30;;;;;;;4.46;79.29;96230.59;5115641;28;20496;-54
2022/11/27 05:14:48;;;;;;;0.73;0.30;;;;;;;4.47;78.87;96227.78;5115709;28;20515;-54
2022/11/27 05:17:16;;;;;;;5.10;0.53;;;;;;;4.40;78.73;96219.09;5115602;28;20428;-54
2022/11/27 05:19:44;;;;;;;0.30;0.30;;;;;;;4.59;78.91;96233.16;5115705;28;20424;-54
2022/11/27 05:22:12;;;;;;;0.50;0.47;;;;;;;4.61;77.91;96232.94;5115344;28;20423;-54
2022/11/27 05:24:41;;;;;;;0.50;0.50;;;;;;;4.91;78.52;96229.56;5115496;28;20424;-55
2022/11/27 05:27:11;;;;;;;1.23;1.23;;;;;;;5.00;75.62;96233.56;5115239;28;20527;-54
2022/11/27 05:29:39;;;;;;;1.47;1.37;;;;;;;5.05;75.88;96240.81;5115321;28;20951;-54
2022/11/27 05:32:07;;;;;;;0.70;0.70;;;;;;;5.13;75.33;96238.69;5114944;28;20432;-55
2022/11/27 05:34:36;;;;;;;0.70;0.70;;;;;;;5.22;74.87;96241.06;5115376;28;20420;-55
2022/11/27 05:37:04;;;;;;;1.23;1.10;;;;;;;5.43;74.18;96241.53;5115188;28;20481;-54
2022/11/27 05:39:32;;;;;;;8.23;2.23;;;;;;;4.64;74.85;96193.16;5115553;27;20424;-53
2022/11/27 05:42:01;;;;;;;1.07;1.07;;;;;;;5.04;74.95;96250.50;5115392;28;20411;-55
2022/11/27 05:44:31;;;;;;;0.60;0.60;;;;;;;5.25;75.11;96245.91;5115146;28;20435;-54
2022/11/27 05:46:59;;;;;;;5.07;0.90;;;;;;;5.58;74.62;96249.91;5115233;28;20416;-55
2022/11/27 05:49:27;;;;;;;1.80;1.70;;;;;;;5.51;73.51;96246.53;5114327;28;20467;-55
2022/11/27 05:51:55;;;;;;;3.50;1.00;;;;;;;5.60;74.01;96247.88;5115142;28;20415;-58
2022/11/27 05:54:24;;;;;;;0.90;0.90;;;;;;;5.51;74.21;96248.34;5115148;28;20995;-55
2022/11/27 05:56:52;;;;;;;1.13;1.13;;;;;;;5.57;73.38;96243.03;5115559;28;20416;-55
2022/11/27 05:59:20;;;;;;;1.90;0.80;;;;;;;5.51;74.45;96249.16;5115438;28;20822;-55
2022/11/27 06:01:50;;;;;;;1.07;1.00;;;;;;;5.45;73.60;96257.09;5115076;28;20424;-55
2022/11/27 06:04:19;;;;;;;0.50;0.50;;;;;;;5.75;72.69;96252.78;5115461;28;20444;-55
2022/11/27 06:06:47;;;;;;;1.20;1.20;;;;;;;5.10;73.91;96265.44;5115103;28;20426;-55
2022/11/27 06:09:15;;;;;;;4.80;1.57;;;;;;;4.77;76.01;96270.06;5115120;28;20431;-56
2022/11/27 06:11:44;;;;;;;0.70;0.70;;;;;;;5.13;76.04;96262.34;5114817;28;20468;-56
2022/11/27 06:14:12;;;;;;;1.87;1.60;;;;;;;5.38;74.92;96272.94;5113466;28;20496;-56
2022/11/27 06:16:40;;;;;;;3.80;3.60;;;;;;;5.07;75.67;96278.16;5114776;28;20458;-56
2022/11/27 06:19:10;;;;;;;23.17;3.30;;;;;;;5.04;76.67;96276.78;5114842;28;20481;-55
2022/11/27 06:21:39;;;;;;;3.13;1.20;;;;;;;5.64;74.65;96271.94;5114977;28;20939;-56
2022/11/27 06:24:07;;;;;;;1.30;1.20;;;;;;;5.77;74.08;96271.78;5114807;28;20488;-55
2022/11/27 06:26:36;;;;;;;2.60;2.50;;;;;;;5.75;74.03;96266.75;5114424;28;20436;-54
2022/11/27 06:29:04;;;;;;;1.70;1.60;;;;;;;5.40;74.42;96246.41;5114443;28;20475;-55
2022/11/27 06:31:33;;;;;;;1.57;1.47;;;;;;;5.93;73.72;96266.03;5114599;27;20606;-55
2022/11/27 06:34:02;;;;;;;1.30;1.30;;;;;;;5.90;73.49;96263.00;5114329;28;20951;-55
2022/11/27 06:36:34;;;;;;;5.93;5.43;;;;;;;5.97;74.55;96266.41;5114792;28;20495;-55
2022/11/27 06:39:05;;;;;;;1.13;1.13;;;;;;;6.16;72.74;96268.84;5114210;28;20443;-56
2022/11/27 06:41:34;;;;;;;3.73;2.10;;;;;;;6.52;71.31;96269.88;5114114;28;20981;-56
2022/11/27 06:44:03;;;;;;;3.00;1.63;;;;;;;6.76;70.14;96266.31;5114188;28;20507;-55
2022/11/27 06:46:32;;;;;;;4.70;2.77;;;;;;;6.73;69.82;96272.06;5094258;28;20429;-56
2022/11/27 06:49:01;;;;;;;4.13;3.63;;;;;;;6.15;69.86;96225.09;5093810;28;20437;-55
2022/11/27 06:51:33;;;;;;;3.60;3.40;;;;;;;5.89;72.33;96277.19;5093692;28;20505;-56
2022/11/27 06:54:02;;;;;;;6.30;4.97;;;;;;;6.09;71.48;96268.09;5093782;28;20425;-54
2022/11/27 06:56:32;;;;;;;7.60;4.20;;;;;;;6.25;71.30;96274.59;5093706;28;20815;-55
2022/11/27 06:59:01;;;;;;;5.13;2.30;;;;;;;6.43;71.51;96276.44;5093605;28;20428;-55
2022/11/27 07:01:33;;;;;;;10.13;1.53;;;;;;;6.16;73.17;96276.72;5093676;28;20428;-56
2022/11/27 07:04:05;;;;;;;6.40;1.80;;;;;;;6.65;72.34;96274.97;5093320;28;20957;-56
2022/11/27 07:06:35;;;;;;;1.47;1.37;;;;;;;6.65;71.41;96270.53;5093305;28;20534;-56
2022/11/27 07:09:04;;;;;;;2.50;1.23;;;;;;;6.33;72.34;96272.50;5093238;28;20494;-56
2022/11/27 07:11:33;;;;;;;0.43;0.40;;;;;;;6.04;72.57;96220.59;5093558;28;20540;-56
2022/11/27 07:14:04;;;;;;;2.37;1.27;;;;;;;6.32;73.48;96276.13;5093151;28;20435;-55
2022/11/27 07:16:34;;;;;;;1.60;1.53;;;;;;;6.50;71.80;96272.72;5093362;28;20441;-56
2022/11/27 07:19:05;;;;;;;1.43;1.33;;;;;;;6.30;72.71;96272.13;5093136;28;20424;-56
2022/11/27 07:21:37;;;;;;;3.23;1.73;;;;;;;6.26;73.55;96282.28;5092845;28;20429;-55
2022/11/27 07:24:06;;;;;;;0.47;0.40;;;;;;;6.84;71.89;96271.28;5092766;28;20516;-55
2022/11/27 07:26:34;;;;;;;1.03;1.00;;;;;;;6.97;70.67;96263.22;5093104;28;20437;-55
2022/11/27 07:29:02;;;;;;;0.60;0.50;;;;;;;7.01;71.42;96256.47;5092571;28;20547;-55
2022/11/27 07:31:31;;;;;;;0.70;0.70;;;;;;;7.38;70.00;96257.16;5092764;28;20567;-55
2022/11/27 07:33:59;;;;;;;1.20;1.10;;;;;;;7.56;70.50;96268.41;5092891;28;20417;-55
2022/11/27 07:36:29;;;;;;;1.00;0.87;;;;;;;7.95;67.44;96264.34;5093121;28;20429;-54
2022/11/27 07:38:59;;;;;;;4.23;1.80;;;;;;;7.86;67.55;96263.09;5093066;28;20421;-55
2022/11/27 07:41:27;;;;;;;3.47;3.20;;;;;;;7.92;67.75;96261.38;5093127;28;20424;-56
2022/11/27 07:44:01;;;;;;;1.90;1.80;;;;;;;8.25;66.33;96267.66;5092898;28;20512;-56
2022/11/27 07:46:30;;;;;;;1.97;1.87;;;;;;;8.03;66.33;96260.53;5092321;28;20432;-56
2022/11/27 07:48:59;;;;;;;2.43;2.33;;;;;;;8.56;65.24;96255.94;5092566;28;20430;-56
2022/11/27 07:51:28;;;;;;;8.93;3.77;;;;;;;8.77;64.42;96252.66;5092420;28;20460;-55
2022/11/27 07:53:56;;;;;;;4.57;4.27;;;;;;;8.15;65.13;96253.41;5090421;28;20437;-56
2022/11/27 07:56:26;;;;;;;15.80;6.17;;;;;;;7.95;66.70;96261.69;5090634;28;20925;-56
2022/11/27 07:58:54;;;;;;;16.10;5.20;;;;;;;8.29;65.68;96262.75;5090632;28;20425;-57
2022/11/27 08:01:22;;;;;;;2.03;1.70;;;;;;;8.42;64.96;96254.59;5091833;28;20421;-57
2022/11/27 08:03:51;;;;;;;4.87;2.67;;;;;;;7.93;65.10;96195.13;5091928;28;20508;-57
2022/11/27 08:06:22;;;;;;;1.97;1.87;;;;;;;8.35;65.07;96251.25;5092056;28;20455;-58
2022/11/27 08:08:51;;;;;;;2.30;2.10;;;;;;;9.25;63.54;96244.31;5091909;28;20421;-56
2022/11/27 08:11:21;;;;;;;2.00;1.00;;;;;;;9.94;61.95;96194.59;5091992;28;20462;-56
2022/11/27 08:13:55;;;;;;;1.97;1.87;;;;;;;9.99;60.39;96237.81;5091792;28;20446;-55
2022/11/27 08:16:24;;;;;;;0.77;0.77;;;;;;;10.25;60.66;96243.50;5092118;28;20424;-56
2022/11/27 08:18:52;;;;;;;0.70;0.67;;;;;;;10.55;59.79;96238.63;5092018;28;20516;-57
2022/11/27 08:21:20;;;;;;;6.43;3.47;;;;;;;11.11;59.00;96224.94;5092344;28;20433;-57
2022/11/27 08:23:49;;;;;;;3.70;1.80;;;;;;;11.41;56.62;96246.47;5092150;28;20424;-59
2022/11/27 08:26:17;;;;;;;10.93;2.27;;;;;;;11.75;55.17;96238.28;5092038;28;20451;-58
2022/11/27 08:28:46;;;;;;;1.17;1.07;;;;;;;12.05;55.18;96230.53;5091765;28;20866;-59
2022/11/27 08:31:16;;;;;;;4.00;0.73;;;;;;;11.93;55.16;96227.28;5091833;28;20478;-60
2022/11/27 08:33:45;;;;;;;8.53;3.13;;;;;;;11.83;56.15;96228.00;5091966;28;20430;-61
2022/11/27 08:36:13;;;;;;;0.60;0.60;;;;;;;12.25;54.33;96221.88;5091294;28;20423;-61
2022/11/27 08:38:45;;;;;;;1.23;1.03;;;;;;;12.84;52.05;96211.78;5091639;28;20482;-61
2022/11/27 08:41:13;;;;;;;8.90;1.73;;;;;;;12.56;52.31;96144.69;5091589;28;20447;-61
2022/11/27 08:43:42;;;;;;;2.50;2.40;;;;;;;13.10;51.75;96201.00;5091993;28;20862;-61
2022/11/27 08:46:10;;;;;;;2.43;1.90;;;;;;;13.30;50.03;96131.00;5091664;28;20436;-60
2022/11/27 08:48:40;;;;;;;1.57;1.47;;;;;;;14.19;48.50;96189.00;5091576;28;20425;-60
2022/11/27 08:51:11;;;;;;;2.10;2.00;;;;;;;13.80;48.55;96178.13;5091673;28;20470;-60
2022/11/27 08:53:40;;;;;;;1.80;1.63;;;;;;;13.62;48.13;96112.06;5091991;28;20436;-60
2022/11/27 08:56:15;;;;;;;3.80;2.10;;;;;;;13.57;48.96;96163.50;5092019;28;20527;-60
2022/11/27 08:58:44;;;;;;;7.07;5.43;;;;;;;13.22;50.01;96176.78;5091590;28;20459;-59
2022/11/27 09:01:16;;;;;;;11.83;7.20;;;;;;;13.39;49.14;96169.34;5091558;28;20435;-60
2022/11/27 09:03:45;;;;;;;5.03;4.67;;;;;;;13.29;48.86;96172.81;5091931;28;20419;-59
2022/11/27 09:06:16;;;;;;;6.80;3.47;;;;;;;13.38;48.45;96139.25;5091619;28;20447;-59
2022/11/27 09:08:45;;;;;;;2.17;1.97;;;;;;;14.11;48.21;96163.69;5091585;28;20418;-60
2022/11/27 09:11:15;;;;;;;4.30;1.67;;;;;;;14.38;48.09;96166.03;5091644;28;20507;-60
2022/11/27 09:13:43;;;;;;;9.33;3.93;;;;;;;14.16;47.64;96161.00;5091593;28;20416;-61
2022/11/27 09:16:14;;;;;;;1.17;1.17;;;;;;;13.78;48.51;96143.75;5091474;28;20430;-61
2022/11/27 09:18:46;;;;;;;7.97;4.17;;;;;;;14.27;48.36;96157.22;5091576;28;20430;-60
2022/11/27 09:21:16;;;;;;;2.63;2.37;;;;;;;15.16;47.00;96150.94;5091222;28;20423;-59
2022/11/27 09:23:44;;;;;;;1.57;1.47;;;;;;;15.72;45.48;96138.78;5091043;28;20420;-59
2022/11/27 09:26:14;;;;;;;1.30;1.30;;;;;;;16.39;43.40;96080.84;5091292;28;20421;-59
2022/11/27 09:28:44;;;;;;;3.63;1.10;;;;;;;17.05;42.82;96127.06;5090819;28;20551;-59
2022/11/27 09:31:14;;;;;;;3.13;2.50;;;;;;;16.15;43.78;96129.00;5091112;28;20519;-58
2022/11/27 09:33:43;;;;;;;3.03;1.33;;;;;;;16.19;42.92;96116.66;5091372;28;20923;-57
2022/11/27 09:36:15;;;;;;;2.40;0.97;;;;;;;15.96;43.80;96101.41;5091431;28;20459;-57
2022/11/27 09:38:44;;;;;;;1.53;1.43;;;;;;;15.98;44.40;96107.25;5091225;28;20439;-57
2022/11/27 09:41:41;;;;;;;1.80;1.70;;;;;;;16.78;43.20;96099.34;5091599;28;20420;-57
2022/11/27 09:44:31;;;;;;;8.63;2.10;;;;;;;16.56;42.07;96034.88;5091448;28;20583;-58
2022/11/27 09:47:05;;;;;;;6.43;1.47;;;;;;;16.89;42.94;96090.09;5091174;28;20428;-57
2022/11/27 09:49:39;;;;;;;1.70;1.60;;;;;;;16.30;40.55;96078.00;5094840;28;20446;-57
2022/11/27 09:52:17;;;;;;;5.13;0.97;;;;;;;16.04;41.88;96084.72;5094661;28;20467;-57
2022/11/27 09:54:55;;;;;;;0.70;0.70;;;;;;;16.60;39.83;96076.84;5094715;28;20989;-57
2022/11/27 09:57:27;;;;;;;1.43;1.33;;;;;;;16.59;40.73;96069.09;5095049;28;20431;-58
2022/11/27 09:59:58;;;;;;;2.57;0.87;;;;;;;16.62;40.18;96068.53;5094904;28;20503;-58
2022/11/27 10:02:30;;;;;;;1.27;0.83;;;;;;;18.29;37.99;96043.19;5094965;28;20424;-58
2022/11/27 10:05:00;;;;;;;0.97;0.87;;;;;;;17.97;37.75;96062.03;5095038;28;20458;-58
2022/11/27 10:08:00;;;;;;;0.83;0.83;;;;;;;18.76;36.10;96050.75;5094573;28;20523;-58
2022/11/27 10:10:40;;;;;;;1.23;0.53;;;;;;;19.64;34.63;96043.81;5094616;28;20429;-57
2022/11/27 10:13:20;;;;;;;1.77;1.03;;;;;;;17.86;36.57;96047.25;5094926;28;21069;-57
2022/11/27 10:15:55;;;;;;;3.80;1.23;;;;;;;18.90;35.98;96031.91;5094336;28;20503;-56
2022/11/27 10:18:32;;;;;;;1.43;1.33;;;;;;;19.16;35.23;96032.91;5094232;28;20456;-56
2022/11/27 10:21:07;;;;;;;2.53;0.93;;;;;;;19.09;35.27;96027.16;5094368;28;20512;-55
2022/11/27 10:23:46;;;;;;;4.47;3.00;;;;;;;18.22;38.36;96027.47;5094226;28;20424;-55
2022/11/27 10:26:18;;;;;;;1.63;1.53;;;;;;;18.49;35.13;96021.31;5094199;28;20931;-55
2022/11/27 10:28:55;;;;;;;1.67;1.03;;;;;;;18.76;34.75;96013.16;5094215;28;20476;-56
2022/11/27 10:31:33;;;;;;;1.13;0.87;;;;;;;18.35;34.50;96009.75;5094448;28;20444;-56
2022/11/27 10:34:07;;;;;;;4.40;0.77;;;;;;;18.29;34.97;96011.75;5094070;28;20561;-56
2022/11/27 10:36:39;;;;;;;1.10;1.10;;;;;;;18.36;34.96;95989.88;5093617;28;20432;-56
2022/11/27 10:39:30;;;;;;;1.27;1.23;;;;;;;16.27;37.90;96006.34;5093611;28;20423;-56
2022/11/27 10:42:06;;;;;;;2.10;1.87;;;;;;;15.54;38.69;95997.06;5094010;28;20951;-56
2022/11/27 10:44:38;;;;;;;1.20;1.00;;;;;;;15.70;39.52;95993.97;5093987;28;20420;-57
2022/11/27 10:47:10;;;;;;;1.17;0.90;;;;;;;15.41;40.85;95987.00;5093958;28;20424;-57
2022/11/27 10:49:40;;;;;;;1.17;1.07;;;;;;;15.62;41.40;95988.44;5094014;28;20425;-57
2022/11/27 10:52:13;;;;;;;0.67;0.67;;;;;;;15.62;40.94;95956.38;5094110;28;20874;-56
2022/11/27 10:54:45;;;;;;;0.60;0.60;;;;;;;15.32;41.21;95983.38;5093931;28;20435;-56
2022/11/27 10:57:37;;;;;;;0.50;0.50;;;;;;;16.10;40.09;95973.94;5093623;28;20456;-56
2022/11/27 11:00:12;;;;;;;1.17;0.50;;;;;;;16.65;39.97;95961.66;5092908;28;20872;-57
2022/11/27 11:02:41;;;;;;;2.50;1.43;;;;;;;14.54;42.28;95944.31;5093456;28;20421;-58
2022/11/27 11:05:24;;;;;;;0.63;0.60;;;;;;;15.28;42.27;95975.94;5093632;28;20497;-59
2022/11/27 11:08:18;;;;;;;0.90;0.90;;;;;;;14.25;42.01;95964.72;5092992;28;20525;-60
2022/11/27 11:10:53;;;;;;;1.37;0.97;;;;;;;13.86;43.75;95967.31;5093269;28;20435;-58
2022/11/27 11:13:26;;;;;;;1.67;0.70;;;;;;;13.24;44.87;95935.88;5093307;28;20493;-59
2022/11/27 11:16:00;;;;;;;1.57;0.90;;;;;;;13.53;44.40;95924.59;5093750;28;20814;-59
2022/11/27 11:18:30;;;;;;;1.07;0.60;;;;;;;13.94;44.27;95952.63;5093345;28;20512;-59
2022/11/27 11:21:00;;;;;;;1.07;0.53;;;;;;;13.99;44.40;95889.44;5093207;28;20893;-58
2022/11/27 11:23:34;;;;;;;1.63;1.53;;;;;;;13.59;43.44;95937.59;5093324;28;20435;-59
2022/11/27 11:26:15;;;;;;;1.83;1.73;;;;;;;13.56;44.42;95934.72;5093004;28;20912;-58
2022/11/27 11:28:50;;;;;;;2.40;0.97;;;;;;;13.61;44.04;95918.72;5092770;28;20842;-60
2022/11/27 11:31:21;;;;;;;1.10;1.10;;;;;;;12.82;45.43;95915.97;5093166;28;20416;-59
2022/11/27 11:33:54;;;;;;;3.13;2.93;;;;;;;12.89;43.82;95927.94;5092823;28;20480;-59
2022/11/27 11:36:22;;;;;;;1.33;1.07;;;;;;;12.80;44.49;95929.50;5092620;28;20466;-59
2022/11/27 11:38:52;;;;;;;0.97;0.87;;;;;;;13.00;44.84;95924.19;5092558;28;20421;-61
2022/11/27 11:41:23;;;;;;;2.40;1.70;;;;;;;13.35;45.40;95921.47;5092891;28;20436;-61
2022/11/27 11:43:57;;;;;;;1.37;1.27;;;;;;;12.56;46.78;95921.31;5092626;28;20844;-62
2022/11/27 11:46:28;;;;;;;1.37;0.83;;;;;;;13.29;45.50;95887.13;5092721;28;20509;-60
2022/11/27 11:49:00;;;;;;;1.53;1.30;;;;;;;13.14;45.42;95914.59;5092838;28;20441;-61
2022/11/27 11:51:49;;;;;;;1.60;1.57;;;;;;;13.18;45.30;95910.31;5092249;28;20476;-60
2022/11/27 11:54:30;;;;;;;1.13;1.13;;;;;;;13.13;45.29;95906.91;5071694;28;20488;-61
2022/11/27 11:57:05;;;;;;;2.23;2.13;;;;;;;14.29;44.44;95899.13;5092524;28;20895;-61
2022/11/27 11:59:42;;;;;;;0.90;0.90;;;;;;;13.92;42.53;95880.97;5092380;28;20506;-61